sensor_id;sensor_type;location;lat;lon;timestamp;P1;durP1;ratioP1;P2;durP2;ratioP2
8737;SDS011;4405;49.272;8.590;2023-01-26T00:02:05;23.33;;;16.43;;
8737;SDS011;4405;49.272;8.590;2023-01-26T00:04:33;24.50;;;15.93;;
8737;SDS011;4405;49.272;8.590;2023-01-26T00:06:59;26.00;;;16.57;;
8737;SDS011;4405;49.272;8.590;2023-01-26T00:09:26;27.10;;;17.07;;
8737;SDS011;4405;49.272;8.590;2023-01-26T00:11:52;25.93;;;17.00;;
8737;SDS011;4405;49.272;8.590;2023-01-26T00:14:18;28.10;;;16.40;;
8737;SDS011;4405;49.272;8.590;2023-01-26T00:16:45;25.33;;;16.30;;
8737;SDS011;4405;49.272;8.590;2023-01-26T00:19:11;24.83;;;16.63;;
8737;SDS011;4405;49.272;8.590;2023-01-26T00:21:39;23.33;;;16.37;;
8737;SDS011;4405;49.272;8.590;2023-01-26T00:24:05;26.63;;;16.87;;
8737;SDS011;4405;49.272;8.590;2023-01-26T00:26:31;24.23;;;16.50;;
8737;SDS011;4405;49.272;8.590;2023-01-26T00:28:58;26.73;;;17.20;;
8737;SDS011;4405;49.272;8.590;2023-01-26T00:31:25;25.03;;;16.80;;
8737;SDS011;4405;49.272;8.590;2023-01-26T00:33:52;26.00;;;16.93;;
8737;SDS011;4405;49.272;8.590;2023-01-26T00:36:19;27.77;;;17.03;;
8737;SDS011;4405;49.272;8.590;2023-01-26T00:38:46;25.40;;;17.03;;
8737;SDS011;4405;49.272;8.590;2023-01-26T00:41:13;24.07;;;16.93;;
8737;SDS011;4405;49.272;8.590;2023-01-26T00:43:53;23.97;;;17.37;;
8737;SDS011;4405;49.272;8.590;2023-01-26T00:46:19;27.20;;;17.43;;
8737;SDS011;4405;49.272;8.590;2023-01-26T00:48:46;23.70;;;16.23;;
8737;SDS011;4405;49.272;8.590;2023-01-26T00:51:12;27.10;;;17.50;;
8737;SDS011;4405;49.272;8.590;2023-01-26T00:53:38;26.77;;;17.03;;
8737;SDS011;4405;49.272;8.590;2023-01-26T00:56:07;26.50;;;16.63;;
8737;SDS011;4405;49.272;8.590;2023-01-26T00:58:33;27.83;;;17.63;;
8737;SDS011;4405;49.272;8.590;2023-01-26T01:00:59;27.90;;;17.77;;
8737;SDS011;4405;49.272;8.590;2023-01-26T01:03:26;27.70;;;17.13;;
8737;SDS011;4405;49.272;8.590;2023-01-26T01:05:52;31.53;;;18.70;;
8737;SDS011;4405;49.272;8.590;2023-01-26T01:08:18;29.93;;;18.53;;
8737;SDS011;4405;49.272;8.590;2023-01-26T01:10:44;29.33;;;17.73;;
8737;SDS011;4405;49.272;8.590;2023-01-26T01:13:12;25.97;;;17.53;;
8737;SDS011;4405;49.272;8.590;2023-01-26T01:15:38;28.13;;;18.13;;
8737;SDS011;4405;49.272;8.590;2023-01-26T01:18:05;30.07;;;18.30;;
8737;SDS011;4405;49.272;8.590;2023-01-26T01:20:31;28.60;;;17.40;;
8737;SDS011;4405;49.272;8.590;2023-01-26T01:22:57;28.57;;;18.13;;
8737;SDS011;4405;49.272;8.590;2023-01-26T01:25:24;30.67;;;18.93;;
8737;SDS011;4405;49.272;8.590;2023-01-26T01:27:50;27.53;;;16.90;;
8737;SDS011;4405;49.272;8.590;2023-01-26T01:30:18;29.20;;;18.63;;
8737;SDS011;4405;49.272;8.590;2023-01-26T01:32:44;33.33;;;19.03;;
8737;SDS011;4405;49.272;8.590;2023-01-26T01:35:13;31.50;;;19.20;;
8737;SDS011;4405;49.272;8.590;2023-01-26T01:37:40;32.93;;;18.97;;
8737;SDS011;4405;49.272;8.590;2023-01-26T01:40:08;28.30;;;18.33;;
8737;SDS011;4405;49.272;8.590;2023-01-26T01:42:35;31.57;;;19.10;;
8737;SDS011;4405;49.272;8.590;2023-01-26T01:47:48;31.17;;;19.37;;
8737;SDS011;4405;49.272;8.590;2023-01-26T01:50:14;30.17;;;18.17;;
8737;SDS011;4405;49.272;8.590;2023-01-26T01:52:41;32.17;;;18.97;;
8737;SDS011;4405;49.272;8.590;2023-01-26T01:55:08;30.03;;;19.07;;
8737;SDS011;4405;49.272;8.590;2023-01-26T01:57:35;34.07;;;19.57;;
8737;SDS011;4405;49.272;8.590;2023-01-26T02:00:09;28.97;;;18.53;;
8737;SDS011;4405;49.272;8.590;2023-01-26T02:02:36;29.53;;;18.70;;
8737;SDS011;4405;49.272;8.590;2023-01-26T02:05:06;29.10;;;18.63;;
8737;SDS011;4405;49.272;8.590;2023-01-26T02:07:35;27.43;;;17.80;;
8737;SDS011;4405;49.272;8.590;2023-01-26T02:10:03;30.93;;;17.77;;
8737;SDS011;4405;49.272;8.590;2023-01-26T02:12:44;30.43;;;18.70;;
8737;SDS011;4405;49.272;8.590;2023-01-26T02:15:11;27.70;;;17.50;;
8737;SDS011;4405;49.272;8.590;2023-01-26T02:17:38;30.77;;;17.60;;
8737;SDS011;4405;49.272;8.590;2023-01-26T02:20:08;33.33;;;18.97;;
8737;SDS011;4405;49.272;8.590;2023-01-26T02:22:39;32.80;;;18.90;;
8737;SDS011;4405;49.272;8.590;2023-01-26T02:25:18;31.63;;;17.70;;
8737;SDS011;4405;49.272;8.590;2023-01-26T02:27:51;27.40;;;18.00;;
8737;SDS011;4405;49.272;8.590;2023-01-26T02:30:18;29.83;;;18.30;;
8737;SDS011;4405;49.272;8.590;2023-01-26T02:32:44;34.97;;;20.13;;
8737;SDS011;4405;49.272;8.590;2023-01-26T02:35:10;29.93;;;18.97;;
8737;SDS011;4405;49.272;8.590;2023-01-26T02:37:37;30.90;;;18.70;;
8737;SDS011;4405;49.272;8.590;2023-01-26T02:40:04;31.23;;;19.17;;
8737;SDS011;4405;49.272;8.590;2023-01-26T02:42:32;31.40;;;18.67;;
8737;SDS011;4405;49.272;8.590;2023-01-26T02:45:08;29.37;;;17.43;;
8737;SDS011;4405;49.272;8.590;2023-01-26T02:47:35;30.30;;;18.17;;
8737;SDS011;4405;49.272;8.590;2023-01-26T02:50:02;29.37;;;17.67;;
8737;SDS011;4405;49.272;8.590;2023-01-26T02:52:28;29.47;;;17.30;;
8737;SDS011;4405;49.272;8.590;2023-01-26T02:54:55;27.13;;;17.80;;
8737;SDS011;4405;49.272;8.590;2023-01-26T02:57:39;28.80;;;17.63;;
8737;SDS011;4405;49.272;8.590;2023-01-26T03:00:08;25.37;;;16.70;;
8737;SDS011;4405;49.272;8.590;2023-01-26T03:02:35;26.93;;;15.87;;
8737;SDS011;4405;49.272;8.590;2023-01-26T03:05:01;26.20;;;15.93;;
8737;SDS011;4405;49.272;8.590;2023-01-26T03:07:28;25.87;;;16.37;;
8737;SDS011;4405;49.272;8.590;2023-01-26T03:09:55;27.07;;;15.97;;
8737;SDS011;4405;49.272;8.590;2023-01-26T03:12:22;27.30;;;15.80;;
8737;SDS011;4405;49.272;8.590;2023-01-26T03:14:49;26.77;;;16.40;;
8737;SDS011;4405;49.272;8.590;2023-01-26T03:17:36;29.20;;;16.07;;
8737;SDS011;4405;49.272;8.590;2023-01-26T03:20:04;26.17;;;15.53;;
8737;SDS011;4405;49.272;8.590;2023-01-26T03:22:48;27.77;;;16.27;;
8737;SDS011;4405;49.272;8.590;2023-01-26T03:25:32;27.87;;;16.00;;
8737;SDS011;4405;49.272;8.590;2023-01-26T03:28:16;28.07;;;16.60;;
8737;SDS011;4405;49.272;8.590;2023-01-26T03:30:46;27.33;;;16.10;;
8737;SDS011;4405;49.272;8.590;2023-01-26T03:33:14;25.63;;;15.10;;
8737;SDS011;4405;49.272;8.590;2023-01-26T03:35:40;26.83;;;15.93;;
8737;SDS011;4405;49.272;8.590;2023-01-26T03:38:06;24.40;;;14.90;;
8737;SDS011;4405;49.272;8.590;2023-01-26T03:40:33;27.13;;;15.77;;
8737;SDS011;4405;49.272;8.590;2023-01-26T03:43:16;27.23;;;15.23;;
8737;SDS011;4405;49.272;8.590;2023-01-26T03:46:01;25.33;;;14.73;;
8737;SDS011;4405;49.272;8.590;2023-01-26T03:48:46;24.33;;;14.73;;
8737;SDS011;4405;49.272;8.590;2023-01-26T03:51:30;29.90;;;16.40;;
8737;SDS011;4405;49.272;8.590;2023-01-26T03:54:14;29.73;;;16.20;;
8737;SDS011;4405;49.272;8.590;2023-01-26T03:56:58;30.57;;;15.90;;
8737;SDS011;4405;49.272;8.590;2023-01-26T03:59:24;29.83;;;16.70;;
8737;SDS011;4405;49.272;8.590;2023-01-26T04:02:03;31.57;;;17.27;;
8737;SDS011;4405;49.272;8.590;2023-01-26T04:04:48;30.07;;;16.30;;
8737;SDS011;4405;49.272;8.590;2023-01-26T04:07:32;28.43;;;15.57;;
8737;SDS011;4405;49.272;8.590;2023-01-26T04:10:16;28.03;;;16.00;;
8737;SDS011;4405;49.272;8.590;2023-01-26T04:12:42;26.80;;;16.37;;
8737;SDS011;4405;49.272;8.590;2023-01-26T04:15:09;25.03;;;14.97;;
8737;SDS011;4405;49.272;8.590;2023-01-26T04:17:52;25.80;;;15.03;;
8737;SDS011;4405;49.272;8.590;2023-01-26T04:20:38;27.50;;;14.87;;
8737;SDS011;4405;49.272;8.590;2023-01-26T04:23:21;29.53;;;15.30;;
8737;SDS011;4405;49.272;8.590;2023-01-26T04:25:48;24.40;;;14.03;;
8737;SDS011;4405;49.272;8.590;2023-01-26T04:28:14;27.83;;;14.10;;
8737;SDS011;4405;49.272;8.590;2023-01-26T04:30:40;32.10;;;15.80;;
8737;SDS011;4405;49.272;8.590;2023-01-26T04:33:07;23.60;;;13.87;;
8737;SDS011;4405;49.272;8.590;2023-01-26T04:35:33;24.90;;;14.43;;
8737;SDS011;4405;49.272;8.590;2023-01-26T04:38:01;24.63;;;14.50;;
8737;SDS011;4405;49.272;8.590;2023-01-26T04:40:27;26.13;;;14.70;;
8737;SDS011;4405;49.272;8.590;2023-01-26T04:42:53;23.40;;;13.73;;
8737;SDS011;4405;49.272;8.590;2023-01-26T04:45:20;23.70;;;14.03;;
8737;SDS011;4405;49.272;8.590;2023-01-26T04:47:46;25.00;;;14.17;;
8737;SDS011;4405;49.272;8.590;2023-01-26T04:50:13;23.33;;;13.83;;
8737;SDS011;4405;49.272;8.590;2023-01-26T04:52:39;22.73;;;13.17;;
8737;SDS011;4405;49.272;8.590;2023-01-26T04:55:07;23.57;;;14.03;;
8737;SDS011;4405;49.272;8.590;2023-01-26T04:57:33;22.20;;;13.20;;
8737;SDS011;4405;49.272;8.590;2023-01-26T05:00:00;23.87;;;14.07;;
8737;SDS011;4405;49.272;8.590;2023-01-26T05:02:26;21.37;;;12.80;;
8737;SDS011;4405;49.272;8.590;2023-01-26T05:04:52;24.43;;;14.37;;
8737;SDS011;4405;49.272;8.590;2023-01-26T05:07:19;21.83;;;12.97;;
8737;SDS011;4405;49.272;8.590;2023-01-26T05:09:45;23.97;;;14.73;;
8737;SDS011;4405;49.272;8.590;2023-01-26T05:12:13;25.37;;;13.53;;
8737;SDS011;4405;49.272;8.590;2023-01-26T05:15:06;22.80;;;13.13;;
8737;SDS011;4405;49.272;8.590;2023-01-26T05:17:32;23.40;;;13.93;;
8737;SDS011;4405;49.272;8.590;2023-01-26T05:20:00;23.80;;;13.20;;
8737;SDS011;4405;49.272;8.590;2023-01-26T05:22:26;25.90;;;14.07;;
8737;SDS011;4405;49.272;8.590;2023-01-26T05:24:52;21.80;;;13.43;;
8737;SDS011;4405;49.272;8.590;2023-01-26T05:27:20;27.27;;;14.00;;
8737;SDS011;4405;49.272;8.590;2023-01-26T05:29:47;23.87;;;13.77;;
8737;SDS011;4405;49.272;8.590;2023-01-26T05:32:13;24.13;;;13.90;;
8737;SDS011;4405;49.272;8.590;2023-01-26T05:34:39;25.10;;;14.50;;
8737;SDS011;4405;49.272;8.590;2023-01-26T05:37:06;23.50;;;13.60;;
8737;SDS011;4405;49.272;8.590;2023-01-26T05:39:32;23.17;;;13.87;;
8737;SDS011;4405;49.272;8.590;2023-01-26T05:41:59;26.53;;;14.30;;
8737;SDS011;4405;49.272;8.590;2023-01-26T05:44:26;19.93;;;12.70;;
8737;SDS011;4405;49.272;8.590;2023-01-26T05:46:53;23.93;;;13.93;;
8737;SDS011;4405;49.272;8.590;2023-01-26T05:49:20;23.27;;;14.23;;
8737;SDS011;4405;49.272;8.590;2023-01-26T05:51:46;22.63;;;13.77;;
8737;SDS011;4405;49.272;8.590;2023-01-26T05:54:12;23.07;;;14.03;;
8737;SDS011;4405;49.272;8.590;2023-01-26T05:56:39;21.73;;;12.93;;
8737;SDS011;4405;49.272;8.590;2023-01-26T05:59:05;25.57;;;14.67;;
8737;SDS011;4405;49.272;8.590;2023-01-26T06:01:33;25.23;;;13.67;;
8737;SDS011;4405;49.272;8.590;2023-01-26T06:03:59;24.17;;;13.73;;
8737;SDS011;4405;49.272;8.590;2023-01-26T06:06:25;25.63;;;15.20;;
8737;SDS011;4405;49.272;8.590;2023-01-26T06:08:52;25.03;;;15.53;;
8737;SDS011;4405;49.272;8.590;2023-01-26T06:11:18;26.33;;;14.33;;
8737;SDS011;4405;49.272;8.590;2023-01-26T06:13:44;25.03;;;14.10;;
8737;SDS011;4405;49.272;8.590;2023-01-26T06:16:12;24.77;;;14.80;;
8737;SDS011;4405;49.272;8.590;2023-01-26T06:18:40;24.40;;;14.70;;
8737;SDS011;4405;49.272;8.590;2023-01-26T06:21:06;25.23;;;14.60;;
8737;SDS011;4405;49.272;8.590;2023-01-26T06:23:33;24.27;;;14.87;;
8737;SDS011;4405;49.272;8.590;2023-01-26T06:25:59;24.43;;;15.13;;
8737;SDS011;4405;49.272;8.590;2023-01-26T06:28:26;24.47;;;14.20;;
8737;SDS011;4405;49.272;8.590;2023-01-26T06:30:57;26.27;;;14.57;;
8737;SDS011;4405;49.272;8.590;2023-01-26T06:33:23;26.27;;;15.57;;
8737;SDS011;4405;49.272;8.590;2023-01-26T06:35:51;24.13;;;14.43;;
8737;SDS011;4405;49.272;8.590;2023-01-26T06:38:18;21.83;;;14.23;;
8737;SDS011;4405;49.272;8.590;2023-01-26T06:40:44;24.13;;;14.47;;
8737;SDS011;4405;49.272;8.590;2023-01-26T06:43:11;30.77;;;18.33;;
8737;SDS011;4405;49.272;8.590;2023-01-26T06:45:37;24.80;;;15.00;;
8737;SDS011;4405;49.272;8.590;2023-01-26T06:48:03;23.20;;;13.90;;
8737;SDS011;4405;49.272;8.590;2023-01-26T06:50:30;23.43;;;14.27;;
8737;SDS011;4405;49.272;8.590;2023-01-26T06:52:59;21.53;;;13.13;;
8737;SDS011;4405;49.272;8.590;2023-01-26T06:55:28;20.97;;;14.00;;
8737;SDS011;4405;49.272;8.590;2023-01-26T06:57:57;23.93;;;14.23;;
8737;SDS011;4405;49.272;8.590;2023-01-26T07:00:23;25.80;;;14.60;;
8737;SDS011;4405;49.272;8.590;2023-01-26T07:02:50;22.73;;;13.83;;
8737;SDS011;4405;49.272;8.590;2023-01-26T07:05:16;20.60;;;13.27;;
8737;SDS011;4405;49.272;8.590;2023-01-26T07:07:42;21.27;;;13.63;;
8737;SDS011;4405;49.272;8.590;2023-01-26T07:10:10;23.77;;;14.20;;
8737;SDS011;4405;49.272;8.590;2023-01-26T07:12:37;22.27;;;13.30;;
8737;SDS011;4405;49.272;8.590;2023-01-26T07:15:04;20.33;;;12.97;;
8737;SDS011;4405;49.272;8.590;2023-01-26T07:17:31;21.87;;;13.33;;
8737;SDS011;4405;49.272;8.590;2023-01-26T07:19:57;19.67;;;12.83;;
8737;SDS011;4405;49.272;8.590;2023-01-26T07:22:23;23.70;;;14.10;;
8737;SDS011;4405;49.272;8.590;2023-01-26T07:24:52;21.27;;;12.53;;
8737;SDS011;4405;49.272;8.590;2023-01-26T07:27:20;20.77;;;12.70;;
8737;SDS011;4405;49.272;8.590;2023-01-26T07:29:46;18.53;;;12.23;;
8737;SDS011;4405;49.272;8.590;2023-01-26T07:32:14;18.73;;;12.40;;
8737;SDS011;4405;49.272;8.590;2023-01-26T07:34:40;19.27;;;12.57;;
8737;SDS011;4405;49.272;8.590;2023-01-26T07:37:06;17.27;;;12.30;;
8737;SDS011;4405;49.272;8.590;2023-01-26T07:39:33;19.93;;;12.50;;
8737;SDS011;4405;49.272;8.590;2023-01-26T07:41:59;18.23;;;11.77;;
8737;SDS011;4405;49.272;8.590;2023-01-26T07:44:27;18.03;;;12.33;;
8737;SDS011;4405;49.272;8.590;2023-01-26T07:46:53;19.87;;;12.37;;
8737;SDS011;4405;49.272;8.590;2023-01-26T07:49:19;19.77;;;12.17;;
8737;SDS011;4405;49.272;8.590;2023-01-26T07:51:49;18.60;;;11.80;;
8737;SDS011;4405;49.272;8.590;2023-01-26T07:54:16;19.13;;;11.80;;
8737;SDS011;4405;49.272;8.590;2023-01-26T07:56:42;16.10;;;11.07;;
8737;SDS011;4405;49.272;8.590;2023-01-26T07:59:09;13.97;;;10.63;;
8737;SDS011;4405;49.272;8.590;2023-01-26T08:01:37;17.40;;;11.00;;
8737;SDS011;4405;49.272;8.590;2023-01-26T08:04:03;16.00;;;11.10;;
8737;SDS011;4405;49.272;8.590;2023-01-26T08:06:31;15.83;;;11.13;;
8737;SDS011;4405;49.272;8.590;2023-01-26T08:09:00;16.07;;;11.13;;
8737;SDS011;4405;49.272;8.590;2023-01-26T08:11:26;16.20;;;10.80;;
8737;SDS011;4405;49.272;8.590;2023-01-26T08:13:53;19.40;;;11.80;;
8737;SDS011;4405;49.272;8.590;2023-01-26T08:16:20;54.10;;;33.87;;
8737;SDS011;4405;49.272;8.590;2023-01-26T08:18:47;15.40;;;11.47;;
8737;SDS011;4405;49.272;8.590;2023-01-26T08:21:15;18.57;;;11.17;;
8737;SDS011;4405;49.272;8.590;2023-01-26T08:23:42;15.80;;;10.03;;
8737;SDS011;4405;49.272;8.590;2023-01-26T08:26:09;13.10;;;9.50;;
8737;SDS011;4405;49.272;8.590;2023-01-26T08:28:35;37.83;;;18.87;;
8737;SDS011;4405;49.272;8.590;2023-01-26T08:31:02;18.43;;;11.40;;
8737;SDS011;4405;49.272;8.590;2023-01-26T08:33:29;16.07;;;10.40;;
8737;SDS011;4405;49.272;8.590;2023-01-26T08:36:00;15.80;;;9.37;;
8737;SDS011;4405;49.272;8.590;2023-01-26T08:38:28;13.43;;;9.00;;
8737;SDS011;4405;49.272;8.590;2023-01-26T08:40:54;12.83;;;8.80;;
8737;SDS011;4405;49.272;8.590;2023-01-26T08:43:20;11.87;;;8.97;;
8737;SDS011;4405;49.272;8.590;2023-01-26T08:45:47;10.57;;;8.50;;
8737;SDS011;4405;49.272;8.590;2023-01-26T08:48:13;11.93;;;8.40;;
8737;SDS011;4405;49.272;8.590;2023-01-26T08:50:39;17.23;;;13.80;;
8737;SDS011;4405;49.272;8.590;2023-01-26T08:53:07;39.90;;;27.80;;
8737;SDS011;4405;49.272;8.590;2023-01-26T08:55:34;18.97;;;14.13;;
8737;SDS011;4405;49.272;8.590;2023-01-26T08:58:00;15.87;;;11.80;;
8737;SDS011;4405;49.272;8.590;2023-01-26T09:00:27;35.33;;;26.03;;
8737;SDS011;4405;49.272;8.590;2023-01-26T09:02:57;110.80;;;57.60;;
8737;SDS011;4405;49.272;8.590;2023-01-26T09:05:23;298.83;;;137.03;;
8737;SDS011;4405;49.272;8.590;2023-01-26T09:07:49;64.80;;;34.53;;
8737;SDS011;4405;49.272;8.590;2023-01-26T09:10:17;33.80;;;19.93;;
8737;SDS011;4405;49.272;8.590;2023-01-26T09:12:44;13.20;;;9.50;;
8737;SDS011;4405;49.272;8.590;2023-01-26T09:15:10;12.13;;;9.53;;
8737;SDS011;4405;49.272;8.590;2023-01-26T09:17:36;11.53;;;8.87;;
8737;SDS011;4405;49.272;8.590;2023-01-26T09:20:03;10.67;;;8.30;;
8737;SDS011;4405;49.272;8.590;2023-01-26T09:22:30;9.93;;;8.30;;
8737;SDS011;4405;49.272;8.590;2023-01-26T09:24:56;9.47;;;7.10;;
8737;SDS011;4405;49.272;8.590;2023-01-26T09:27:24;15.17;;;12.00;;
8737;SDS011;4405;49.272;8.590;2023-01-26T09:29:50;10.57;;;8.27;;
8737;SDS011;4405;49.272;8.590;2023-01-26T09:32:17;11.80;;;9.20;;
8737;SDS011;4405;49.272;8.590;2023-01-26T09:34:44;10.77;;;8.50;;
8737;SDS011;4405;49.272;8.590;2023-01-26T09:37:10;12.37;;;8.00;;
8737;SDS011;4405;49.272;8.590;2023-01-26T09:39:36;11.23;;;8.03;;
8737;SDS011;4405;49.272;8.590;2023-01-26T09:42:05;8.73;;;6.67;;
8737;SDS011;4405;49.272;8.590;2023-01-26T09:44:39;8.40;;;6.17;;
8737;SDS011;4405;49.272;8.590;2023-01-26T09:47:11;6.70;;;6.00;;
8737;SDS011;4405;49.272;8.590;2023-01-26T09:49:42;7.27;;;5.83;;
8737;SDS011;4405;49.272;8.590;2023-01-26T09:52:11;10.57;;;6.63;;
8737;SDS011;4405;49.272;8.590;2023-01-26T09:54:41;6.30;;;5.67;;
8737;SDS011;4405;49.272;8.590;2023-01-26T09:57:10;9.17;;;5.90;;
8737;SDS011;4405;49.272;8.590;2023-01-26T09:59:40;9.53;;;6.27;;
8737;SDS011;4405;49.272;8.590;2023-01-26T10:02:15;6.67;;;5.97;;
8737;SDS011;4405;49.272;8.590;2023-01-26T10:04:43;7.57;;;5.77;;
8737;SDS011;4405;49.272;8.590;2023-01-26T10:07:12;7.23;;;5.73;;
8737;SDS011;4405;49.272;8.590;2023-01-26T10:09:39;7.03;;;6.13;;
8737;SDS011;4405;49.272;8.590;2023-01-26T10:12:07;7.23;;;5.47;;
8737;SDS011;4405;49.272;8.590;2023-01-26T10:14:42;6.00;;;5.47;;
8737;SDS011;4405;49.272;8.590;2023-01-26T10:17:12;6.63;;;5.93;;
8737;SDS011;4405;49.272;8.590;2023-01-26T10:19:41;8.50;;;5.80;;
8737;SDS011;4405;49.272;8.590;2023-01-26T10:22:09;6.20;;;5.57;;
8737;SDS011;4405;49.272;8.590;2023-01-26T10:24:37;6.43;;;5.83;;
8737;SDS011;4405;49.272;8.590;2023-01-26T10:27:05;6.90;;;6.20;;
8737;SDS011;4405;49.272;8.590;2023-01-26T10:29:35;6.77;;;6.17;;
8737;SDS011;4405;49.272;8.590;2023-01-26T10:32:03;7.60;;;5.50;;
8737;SDS011;4405;49.272;8.590;2023-01-26T10:34:29;6.47;;;5.87;;
8737;SDS011;4405;49.272;8.590;2023-01-26T10:36:59;7.70;;;6.10;;
8737;SDS011;4405;49.272;8.590;2023-01-26T10:39:27;41.57;;;21.00;;
8737;SDS011;4405;49.272;8.590;2023-01-26T10:41:56;6.90;;;6.20;;
8737;SDS011;4405;49.272;8.590;2023-01-26T10:44:28;5.87;;;5.37;;
8737;SDS011;4405;49.272;8.590;2023-01-26T10:47:14;5.50;;;4.97;;
8737;SDS011;4405;49.272;8.590;2023-01-26T10:49:41;5.73;;;5.23;;
8737;SDS011;4405;49.272;8.590;2023-01-26T10:52:13;5.10;;;4.60;;
8737;SDS011;4405;49.272;8.590;2023-01-26T10:54:41;6.70;;;6.10;;
8737;SDS011;4405;49.272;8.590;2023-01-26T10:57:13;10.00;;;5.90;;
8737;SDS011;4405;49.272;8.590;2023-01-26T10:59:41;6.40;;;5.43;;
8737;SDS011;4405;49.272;8.590;2023-01-26T11:02:27;5.67;;;5.17;;
8737;SDS011;4405;49.272;8.590;2023-01-26T11:05:00;6.87;;;5.43;;
8737;SDS011;4405;49.272;8.590;2023-01-26T11:07:27;7.27;;;5.43;;
8737;SDS011;4405;49.272;8.590;2023-01-26T11:09:54;5.60;;;5.10;;
8737;SDS011;4405;49.272;8.590;2023-01-26T11:12:21;6.33;;;5.00;;
8737;SDS011;4405;49.272;8.590;2023-01-26T11:15:00;5.20;;;4.70;;
8737;SDS011;4405;49.272;8.590;2023-01-26T11:17:30;5.07;;;4.67;;
8737;SDS011;4405;49.272;8.590;2023-01-26T11:20:02;5.50;;;5.00;;
8737;SDS011;4405;49.272;8.590;2023-01-26T11:22:32;5.70;;;5.10;;
8737;SDS011;4405;49.272;8.590;2023-01-26T11:25:07;5.83;;;5.33;;
8737;SDS011;4405;49.272;8.590;2023-01-26T11:27:42;5.30;;;4.87;;
8737;SDS011;4405;49.272;8.590;2023-01-26T11:30:22;5.17;;;4.77;;
8737;SDS011;4405;49.272;8.590;2023-01-26T11:32:54;5.57;;;4.53;;
8737;SDS011;4405;49.272;8.590;2023-01-26T11:35:27;4.93;;;4.53;;
8737;SDS011;4405;49.272;8.590;2023-01-26T11:37:55;5.73;;;5.00;;
8737;SDS011;4405;49.272;8.590;2023-01-26T11:40:34;4.53;;;4.23;;
8737;SDS011;4405;49.272;8.590;2023-01-26T11:43:10;5.10;;;4.60;;
8737;SDS011;4405;49.272;8.590;2023-01-26T11:45:42;4.60;;;4.20;;
8737;SDS011;4405;49.272;8.590;2023-01-26T11:48:16;5.10;;;4.60;;
8737;SDS011;4405;49.272;8.590;2023-01-26T11:50:49;4.63;;;4.30;;
8737;SDS011;4405;49.272;8.590;2023-01-26T11:53:24;5.17;;;4.67;;
8737;SDS011;4405;49.272;8.590;2023-01-26T11:55:57;4.83;;;4.43;;
8737;SDS011;4405;49.272;8.590;2023-01-26T11:58:29;5.57;;;4.43;;
8737;SDS011;4405;49.272;8.590;2023-01-26T12:00:56;4.93;;;4.53;;
8737;SDS011;4405;49.272;8.590;2023-01-26T12:03:26;4.50;;;4.10;;
8737;SDS011;4405;49.272;8.590;2023-01-26T12:05:56;6.60;;;4.23;;
8737;SDS011;4405;49.272;8.590;2023-01-26T12:08:24;4.50;;;4.03;;
8737;SDS011;4405;49.272;8.590;2023-01-26T12:10:56;6.93;;;5.20;;
8737;SDS011;4405;49.272;8.590;2023-01-26T12:13:26;6.27;;;5.13;;
8737;SDS011;4405;49.272;8.590;2023-01-26T12:15:55;4.00;;;3.70;;
8737;SDS011;4405;49.272;8.590;2023-01-26T12:18:24;4.93;;;4.50;;
8737;SDS011;4405;49.272;8.590;2023-01-26T12:20:52;4.60;;;3.90;;
8737;SDS011;4405;49.272;8.590;2023-01-26T12:23:24;4.20;;;3.80;;
8737;SDS011;4405;49.272;8.590;2023-01-26T12:25:52;5.37;;;4.83;;
8737;SDS011;4405;49.272;8.590;2023-01-26T12:28:20;4.50;;;4.17;;
8737;SDS011;4405;49.272;8.590;2023-01-26T12:30:52;6.47;;;5.53;;
8737;SDS011;4405;49.272;8.590;2023-01-26T12:33:20;40.03;;;19.87;;
8737;SDS011;4405;49.272;8.590;2023-01-26T12:35:54;6.00;;;5.47;;
8737;SDS011;4405;49.272;8.590;2023-01-26T12:38:27;7.37;;;6.67;;
8737;SDS011;4405;49.272;8.590;2023-01-26T12:41:01;10.43;;;8.97;;
8737;SDS011;4405;49.272;8.590;2023-01-26T12:43:35;12.87;;;11.57;;
8737;SDS011;4405;49.272;8.590;2023-01-26T12:46:04;9.03;;;7.87;;
8737;SDS011;4405;49.272;8.590;2023-01-26T12:48:34;10.57;;;8.83;;
8737;SDS011;4405;49.272;8.590;2023-01-26T12:51:05;12.73;;;10.40;;
8737;SDS011;4405;49.272;8.590;2023-01-26T12:53:35;8.30;;;7.47;;
8737;SDS011;4405;49.272;8.590;2023-01-26T12:56:05;11.23;;;9.97;;
8737;SDS011;4405;49.272;8.590;2023-01-26T12:58:34;9.30;;;8.30;;
8737;SDS011;4405;49.272;8.590;2023-01-26T13:01:03;14.53;;;11.27;;
8737;SDS011;4405;49.272;8.590;2023-01-26T13:03:31;14.30;;;10.63;;
8737;SDS011;4405;49.272;8.590;2023-01-26T13:05:59;28.67;;;20.93;;
8737;SDS011;4405;49.272;8.590;2023-01-26T13:08:45;14.53;;;12.13;;
8737;SDS011;4405;49.272;8.590;2023-01-26T13:11:13;15.67;;;12.80;;
8737;SDS011;4405;49.272;8.590;2023-01-26T13:13:59;13.50;;;10.73;;
8737;SDS011;4405;49.272;8.590;2023-01-26T13:16:32;18.07;;;13.40;;
8737;SDS011;4405;49.272;8.590;2023-01-26T13:19:01;17.07;;;13.60;;
8737;SDS011;4405;49.272;8.590;2023-01-26T13:21:27;9.57;;;8.47;;
8737;SDS011;4405;49.272;8.590;2023-01-26T13:23:55;13.97;;;11.30;;
8737;SDS011;4405;49.272;8.590;2023-01-26T13:34:48;7.30;;;6.60;;
8737;SDS011;4405;49.272;8.590;2023-01-26T13:37:18;9.87;;;7.57;;
8737;SDS011;4405;49.272;8.590;2023-01-26T13:39:51;7.47;;;6.50;;
8737;SDS011;4405;49.272;8.590;2023-01-26T13:42:18;8.73;;;7.07;;
8737;SDS011;4405;49.272;8.590;2023-01-26T13:44:47;7.47;;;6.27;;
8737;SDS011;4405;49.272;8.590;2023-01-26T13:47:14;13.20;;;11.87;;
8737;SDS011;4405;49.272;8.590;2023-01-26T13:49:42;8.00;;;7.20;;
8737;SDS011;4405;49.272;8.590;2023-01-26T13:52:14;9.30;;;7.27;;
8737;SDS011;4405;49.272;8.590;2023-01-26T13:54:41;8.77;;;7.20;;
8737;SDS011;4405;49.272;8.590;2023-01-26T13:57:10;8.73;;;6.90;;
8737;SDS011;4405;49.272;8.590;2023-01-26T13:59:46;7.30;;;6.60;;
8737;SDS011;4405;49.272;8.590;2023-01-26T14:02:19;9.10;;;6.70;;
8737;SDS011;4405;49.272;8.590;2023-01-26T14:04:49;9.03;;;7.10;;
8737;SDS011;4405;49.272;8.590;2023-01-26T14:07:22;10.07;;;7.17;;
8737;SDS011;4405;49.272;8.590;2023-01-26T14:09:50;9.37;;;7.40;;
8737;SDS011;4405;49.272;8.590;2023-01-26T14:12:19;9.37;;;7.20;;
8737;SDS011;4405;49.272;8.590;2023-01-26T14:14:47;8.17;;;7.33;;
8737;SDS011;4405;49.272;8.590;2023-01-26T14:17:25;11.03;;;7.93;;
8737;SDS011;4405;49.272;8.590;2023-01-26T14:19:54;15.47;;;8.27;;
8737;SDS011;4405;49.272;8.590;2023-01-26T14:22:22;11.93;;;8.37;;
8737;SDS011;4405;49.272;8.590;2023-01-26T14:24:48;11.90;;;8.40;;
8737;SDS011;4405;49.272;8.590;2023-01-26T14:27:22;11.80;;;8.07;;
8737;SDS011;4405;49.272;8.590;2023-01-26T14:29:51;12.90;;;9.40;;
8737;SDS011;4405;49.272;8.590;2023-01-26T14:32:18;11.10;;;8.50;;
8737;SDS011;4405;49.272;8.590;2023-01-26T14:34:52;11.97;;;8.37;;
8737;SDS011;4405;49.272;8.590;2023-01-26T14:37:19;11.60;;;8.37;;
8737;SDS011;4405;49.272;8.590;2023-01-26T14:39:46;13.00;;;9.23;;
8737;SDS011;4405;49.272;8.590;2023-01-26T14:42:13;11.30;;;8.77;;
8737;SDS011;4405;49.272;8.590;2023-01-26T14:44:41;11.03;;;8.37;;
8737;SDS011;4405;49.272;8.590;2023-01-26T14:47:08;10.53;;;8.40;;
8737;SDS011;4405;49.272;8.590;2023-01-26T14:49:40;10.97;;;8.50;;
8737;SDS011;4405;49.272;8.590;2023-01-26T14:52:16;9.70;;;8.13;;
8737;SDS011;4405;49.272;8.590;2023-01-26T14:54:44;10.20;;;8.13;;
8737;SDS011;4405;49.272;8.590;2023-01-26T14:57:10;11.47;;;8.37;;
8737;SDS011;4405;49.272;8.590;2023-01-26T14:59:38;11.97;;;8.37;;
8737;SDS011;4405;49.272;8.590;2023-01-26T15:02:12;11.20;;;8.70;;
8737;SDS011;4405;49.272;8.590;2023-01-26T15:04:39;11.53;;;8.47;;
8737;SDS011;4405;49.272;8.590;2023-01-26T15:09:52;11.07;;;8.13;;
8737;SDS011;4405;49.272;8.590;2023-01-26T15:12:18;11.70;;;8.97;;
8737;SDS011;4405;49.272;8.590;2023-01-26T15:14:46;13.03;;;9.43;;
8737;SDS011;4405;49.272;8.590;2023-01-26T15:17:27;10.43;;;8.53;;
8737;SDS011;4405;49.272;8.590;2023-01-26T15:19:53;12.13;;;9.13;;
8737;SDS011;4405;49.272;8.590;2023-01-26T15:22:20;11.97;;;8.50;;